Lorraine — A8IZ3 — position and weather

sailwx.info

Track history (hours):
 
Tides and Currents Weather Stations Pressure Air Temp Water Temp Dewpoint Dewpoint Depression Visibility Wind Speed Wind Dir Waves Ship Positions

Lorraine

Last reported at 2014-Oct-24 05:07 UTC. Time now 2014-Oct-24 18:14 UTC.
Position N 31°23' E 032°17'.

Length 221 m; draft 10.3 m.

Type: Ship. MMSI: 636012905.

Date/timePositionNaut miles runAvg speedWind from/ knotsBaromVisibWave heightAir tempDewpointWater temp
2014-Oct-24 05:07N 31°23' E 032°17'0 0.1
2014-Oct-24 04:28N 31°23' E 032°17'  
2014-Oct-18 23:32N 36°22' E 014°47'1414.9
2014-Oct-18 22:33N 36°28' E 014°31'1515.2
2014-Oct-18 21:33N 36°36' E 014°14'1515.2
2014-Oct-18 20:33N 36°44' E 013°58'1515.2
2014-Oct-18 19:33N 36°51' E 013°42'1515.0
2014-Oct-18 18:33N 36°59' E 013°26'3014.9
2014-Oct-18 16:33N 37°13' E 012°53'14714.7
2014-Oct-18 06:33N 38°31' E 010°14'1814.8
2014-Oct-18 05:20N 38°41' E 009°55'1214.9
2014-Oct-18 04:32N 38°48' E 009°43'1515.0
2014-Oct-18 03:33N 38°56' E 009°27'1514.6
2014-Oct-18 02:33N 39°05' E 009°12'1010.0
2014-Oct-18 01:32N 39°13' E 009°04'0 0.0
2014-Oct-18 00:32N 39°13' E 009°04'0 0.0
2014-Oct-17 23:31N 39°13' E 009°04'0 0.0
2014-Oct-17 22:31N 39°13' E 009°04'0 0.0
2014-Oct-17 21:34N 39°13' E 009°04'0 0.0
2014-Oct-17 20:33N 39°13' E 009°04'0 0.0
2014-Oct-17 19:33N 39°13' E 009°04'0 0.0
2014-Oct-17 18:32N 39°13' E 009°04'0 0.0
2014-Oct-17 17:32N 39°13' E 009°04'0 0.0
2014-Oct-17 16:31N 39°13' E 009°04'0 0.0
2014-Oct-17 15:31N 39°13' E 009°04'0 0.0
2014-Oct-17 14:33N 39°13' E 009°04'0 0.0
2014-Oct-17 13:33N 39°13' E 009°04'0 0.0
2014-Oct-17 12:33N 39°13' E 009°04'0 0.0
2014-Oct-17 11:32N 39°13' E 009°04'0 0.0
2014-Oct-17 10:32N 39°13' E 009°04'1 0.5
2014-Oct-17 09:33N 39°13' E 009°04'7 6.8
2014-Oct-17 08:33N 39°07' E 009°08'1514.7
2014-Oct-17 07:33N 38°60' E 009°24'238 6.4
2014-Oct-15 18:04N 40°27' E 014°13'713.8
2014-Oct-15 17:33N 40°32' E 014°06'1413.8
2014-Oct-15 16:34N 40°44' E 014°14'7 5.3
2014-Oct-15 15:18N 40°50' E 014°17'0 0.0
2014-Oct-15 14:33N 40°50' E 014°17'0 0.0
2014-Oct-15 13:33N 40°50' E 014°17'0 0.0
2014-Oct-15 12:32N 40°50' E 014°17'9 1.0
2014-Oct-15 03:22N 40°43' E 014°11'19014.8
2014-Oct-14 14:33N 42°03' E 010°21'1915.6
2014-Oct-14 13:21N 42°15' E 010°01'4415.6
2014-Oct-14 10:33N 42°58' E 009°60'1716.6
2014-Oct-14 09:33N 43°14' E 010°05'1716.6
2014-Oct-14 08:33N 43°30' E 010°13'6 6.0
2014-Oct-14 07:33N 43°35' E 010°18'0 0.0
2014-Oct-14 06:33N 43°35' E 010°18'0 0.0
2014-Oct-14 05:33N 43°35' E 010°18'  
Track history (hours):
 
Tides and Currents Weather Stations Pressure Air Temp Water Temp Dewpoint Dewpoint Depression Visibility Wind Speed Wind Dir Waves Ship Positions

Lorraine

Last reported at 2014-Oct-24 05:07 UTC. Time now 2014-Oct-24 18:14 UTC.
Position N 31°23' E 032°17'.

Length 221 m; draft 10.3 m.

Type: Ship. MMSI: 636012905.

Date/timePositionNaut miles runAvg speedWind from/ knotsBaromVisibWave heightAir tempDewpointWater temp
2014-Oct-24 05:07N 31°23' E 032°17'0 0.1
2014-Oct-24 04:28N 31°23' E 032°17'  
2014-Oct-18 23:32N 36°22' E 014°47'1414.9
2014-Oct-18 22:33N 36°28' E 014°31'1515.2
2014-Oct-18 21:33N 36°36' E 014°14'1515.2
2014-Oct-18 20:33N 36°44' E 013°58'1515.2
2014-Oct-18 19:33N 36°51' E 013°42'1515.0
2014-Oct-18 18:33N 36°59' E 013°26'3014.9
2014-Oct-18 16:33N 37°13' E 012°53'14714.7
2014-Oct-18 06:33N 38°31' E 010°14'1814.8
2014-Oct-18 05:20N 38°41' E 009°55'1214.9
2014-Oct-18 04:32N 38°48' E 009°43'1515.0
2014-Oct-18 03:33N 38°56' E 009°27'1514.6
2014-Oct-18 02:33N 39°05' E 009°12'1010.0
2014-Oct-18 01:32N 39°13' E 009°04'0 0.0
2014-Oct-18 00:32N 39°13' E 009°04'0 0.0
2014-Oct-17 23:31N 39°13' E 009°04'0 0.0
2014-Oct-17 22:31N 39°13' E 009°04'0 0.0
2014-Oct-17 21:34N 39°13' E 009°04'0 0.0
2014-Oct-17 20:33N 39°13' E 009°04'0 0.0
2014-Oct-17 19:33N 39°13' E 009°04'0 0.0
2014-Oct-17 18:32N 39°13' E 009°04'0 0.0
2014-Oct-17 17:32N 39°13' E 009°04'0 0.0
2014-Oct-17 16:31N 39°13' E 009°04'0 0.0
2014-Oct-17 15:31N 39°13' E 009°04'0 0.0
2014-Oct-17 14:33N 39°13' E 009°04'0 0.0
2014-Oct-17 13:33N 39°13' E 009°04'0 0.0
2014-Oct-17 12:33N 39°13' E 009°04'0 0.0
2014-Oct-17 11:32N 39°13' E 009°04'0 0.0
2014-Oct-17 10:32N 39°13' E 009°04'1 0.5
2014-Oct-17 09:33N 39°13' E 009°04'7 6.8
2014-Oct-17 08:33N 39°07' E 009°08'1514.7
2014-Oct-17 07:33N 38°60' E 009°24'238 6.4
2014-Oct-15 18:04N 40°27' E 014°13'713.8
2014-Oct-15 17:33N 40°32' E 014°06'1413.8
2014-Oct-15 16:34N 40°44' E 014°14'7 5.3
2014-Oct-15 15:18N 40°50' E 014°17'0 0.0
2014-Oct-15 14:33N 40°50' E 014°17'0 0.0
2014-Oct-15 13:33N 40°50' E 014°17'0 0.0
2014-Oct-15 12:32N 40°50' E 014°17'9 1.0
2014-Oct-15 03:22N 40°43' E 014°11'19014.8
2014-Oct-14 14:33N 42°03' E 010°21'1915.6
2014-Oct-14 13:21N 42°15' E 010°01'4415.6
2014-Oct-14 10:33N 42°58' E 009°60'1716.6
2014-Oct-14 09:33N 43°14' E 010°05'1716.6
2014-Oct-14 08:33N 43°30' E 010°13'6 6.0
2014-Oct-14 07:33N 43°35' E 010°18'0 0.0
2014-Oct-14 06:33N 43°35' E 010°18'0 0.0
2014-Oct-14 05:33N 43°35' E 010°18'  

Dump ship's entire track history